createdAt,value
2017-03-06T00:00:05.353Z,991.67
2017-03-06T00:01:05.328Z,991.63
2017-03-06T00:02:05.309Z,991.68
2017-03-06T00:03:05.287Z,991.68
2017-03-06T00:04:05.262Z,991.66
2017-03-06T00:05:05.247Z,991.66
2017-03-06T00:06:05.218Z,991.63
2017-03-06T00:07:05.200Z,991.64
2017-03-06T00:08:05.174Z,991.65
2017-03-06T00:09:05.269Z,991.64
2017-03-06T00:10:05.127Z,991.68
2017-03-06T00:11:05.120Z,991.63
2017-03-06T00:12:05.085Z,991.65
2017-03-06T00:13:05.066Z,991.68
2017-03-06T00:14:05.039Z,991.62
2017-03-06T00:15:05.015Z,991.65
2017-03-06T00:16:04.996Z,991.67
2017-03-06T00:17:04.978Z,991.7
2017-03-06T00:18:04.954Z,991.68
2017-03-06T00:19:04.930Z,991.68
2017-03-06T00:20:04.908Z,991.7
2017-03-06T00:21:04.883Z,991.71
2017-03-06T00:22:04.859Z,991.73
2017-03-06T00:23:04.838Z,991.75
2017-03-06T00:24:04.816Z,991.72
2017-03-06T00:25:04.796Z,991.74
2017-03-06T00:26:04.771Z,991.75
2017-03-06T00:27:04.749Z,991.76
2017-03-06T00:28:04.729Z,991.75
2017-03-06T00:29:04.708Z,991.81
2017-03-06T00:30:04.688Z,991.76
2017-03-06T00:31:04.666Z,991.75
2017-03-06T00:32:04.636Z,991.73
2017-03-06T00:33:04.615Z,991.76
2017-03-06T00:34:04.595Z,991.75
2017-03-06T00:35:04.576Z,991.76
2017-03-06T00:36:04.552Z,991.76
2017-03-06T00:37:04.533Z,991.75
2017-03-06T00:38:04.503Z,991.77
2017-03-06T00:39:04.482Z,991.77
2017-03-06T00:40:04.457Z,991.75
2017-03-06T00:41:04.442Z,991.78
2017-03-06T00:42:04.421Z,991.81
2017-03-06T00:43:04.391Z,991.79
2017-03-06T00:44:04.370Z,991.82
2017-03-06T00:45:04.348Z,991.83
2017-03-06T00:46:04.329Z,991.86
2017-03-06T00:47:04.301Z,991.87
2017-03-06T00:48:04.277Z,991.86
2017-03-06T00:49:04.258Z,991.84
2017-03-06T00:50:04.236Z,991.89
2017-03-06T00:51:04.215Z,991.89
2017-03-06T00:52:04.195Z,991.87
2017-03-06T00:53:04.175Z,991.88
2017-03-06T00:54:04.154Z,991.91
2017-03-06T00:55:04.124Z,991.89
2017-03-06T00:56:04.104Z,991.93
2017-03-06T00:57:04.084Z,991.9
2017-03-06T00:58:04.061Z,991.92
2017-03-06T00:59:04.043Z,991.95
2017-03-06T01:00:04.020Z,991.94
2017-03-06T01:01:03.991Z,991.95
2017-03-06T01:02:03.973Z,991.94
2017-03-06T01:03:03.949Z,991.88
2017-03-06T01:04:03.930Z,991.9
2017-03-06T01:05:03.906Z,991.89
2017-03-06T01:06:03.886Z,991.88
2017-03-06T01:07:03.862Z,991.92
2017-03-06T01:08:03.837Z,991.9
2017-03-06T01:09:03.819Z,991.88
2017-03-06T01:10:03.792Z,991.89
2017-03-06T01:11:03.770Z,991.91
2017-03-06T01:12:03.756Z,991.91
2017-03-06T01:13:03.725Z,991.91
2017-03-06T01:14:03.705Z,991.89
2017-03-06T01:15:03.683Z,991.87
2017-03-06T01:16:03.663Z,991.88
2017-03-06T01:17:03.637Z,991.84
2017-03-06T01:18:03.623Z,991.85
2017-03-06T01:19:03.599Z,991.84
2017-03-06T01:20:03.571Z,991.84
2017-03-06T01:21:03.552Z,991.83
2017-03-06T01:22:03.529Z,991.81
2017-03-06T01:23:03.501Z,991.83
2017-03-06T01:24:03.491Z,991.82
2017-03-06T01:25:03.458Z,991.83
2017-03-06T01:26:03.439Z,991.86
2017-03-06T01:27:03.414Z,991.87
2017-03-06T01:28:03.392Z,991.9
2017-03-06T01:29:03.373Z,991.88
2017-03-06T01:30:03.351Z,991.85
2017-03-06T01:31:03.325Z,991.87
2017-03-06T01:32:03.303Z,991.9
2017-03-06T01:33:03.282Z,991.86
2017-03-06T01:34:03.266Z,991.88
2017-03-06T01:35:03.248Z,991.9
2017-03-06T01:36:03.215Z,991.91
2017-03-06T01:37:03.198Z,991.91
2017-03-06T01:38:03.171Z,991.89
2017-03-06T01:39:03.151Z,991.91
2017-03-06T01:40:03.130Z,991.94
2017-03-06T01:41:03.103Z,991.89
2017-03-06T01:42:03.136Z,991.91
2017-03-06T01:43:03.061Z,991.92
2017-03-06T01:44:03.038Z,991.88
2017-03-06T01:45:03.019Z,991.89
2017-03-06T01:46:02.997Z,991.88
2017-03-06T01:47:02.972Z,991.9
2017-03-06T01:48:02.956Z,991.87
2017-03-06T01:49:02.927Z,991.88
2017-03-06T01:50:02.905Z,991.85
2017-03-06T01:51:02.885Z,991.86
2017-03-06T01:52:02.914Z,991.83
2017-03-06T01:53:02.838Z,991.86
2017-03-06T01:54:02.818Z,991.81
2017-03-06T01:55:02.803Z,991.8
2017-03-06T01:56:02.771Z,991.75
2017-03-06T01:57:02.751Z,991.77
2017-03-06T01:58:02.733Z,991.77
2017-03-06T01:59:02.712Z,991.79
2017-03-06T02:00:02.681Z,991.75
2017-03-06T02:01:02.660Z,991.76
2017-03-06T02:02:02.640Z,991.74
2017-03-06T02:03:02.615Z,991.79
2017-03-06T02:04:02.601Z,991.8
2017-03-06T02:05:02.579Z,991.77
2017-03-06T02:06:02.552Z,991.76
2017-03-06T02:07:02.528Z,991.77
2017-03-06T02:08:02.503Z,991.75
2017-03-06T02:09:02.486Z,991.78
2017-03-06T02:10:02.466Z,991.77
2017-03-06T02:11:02.438Z,991.78
2017-03-06T02:12:02.425Z,991.73
2017-03-06T02:13:02.394Z,991.7
2017-03-06T02:14:02.370Z,991.68
2017-03-06T02:15:02.350Z,991.69
2017-03-06T02:16:02.333Z,991.71
2017-03-06T02:17:02.308Z,991.71
2017-03-06T02:18:02.280Z,991.7
2017-03-06T02:19:02.260Z,991.71
2017-03-06T02:20:02.240Z,991.7
2017-03-06T02:21:02.222Z,991.7
2017-03-06T02:22:02.201Z,991.68
2017-03-06T02:23:02.178Z,991.67
2017-03-06T02:24:02.152Z,991.7
2017-03-06T02:25:02.128Z,991.7
2017-03-06T02:26:02.107Z,991.71
2017-03-06T02:27:02.087Z,991.7
2017-03-06T02:28:02.066Z,991.74
2017-03-06T02:29:02.042Z,991.76
2017-03-06T02:30:02.015Z,991.76
2017-03-06T02:31:01.993Z,991.74
2017-03-06T02:32:01.975Z,991.76
2017-03-06T02:33:01.949Z,991.74
2017-03-06T02:34:01.929Z,991.79
2017-03-06T02:35:01.913Z,991.81
2017-03-06T02:36:01.882Z,991.83
2017-03-06T02:37:01.861Z,991.81
2017-03-06T02:38:01.842Z,991.86
2017-03-06T02:39:01.820Z,991.84
2017-03-06T02:40:01.789Z,991.82
2017-03-06T02:41:01.780Z,991.85
2017-03-06T02:42:01.749Z,991.82
2017-03-06T02:43:01.727Z,991.84
2017-03-06T02:44:01.700Z,991.85
2017-03-06T02:45:01.686Z,991.83
2017-03-06T02:46:01.656Z,991.84
2017-03-06T02:47:01.635Z,991.83
2017-03-06T02:48:01.612Z,991.86
2017-03-06T02:49:01.594Z,991.83
2017-03-06T02:50:01.575Z,991.87
2017-03-06T02:51:01.544Z,991.85
2017-03-06T02:52:01.524Z,991.83
2017-03-06T02:53:01.504Z,991.79
2017-03-06T02:54:01.482Z,991.82
2017-03-06T02:55:01.453Z,991.85
2017-03-06T02:56:01.431Z,991.82
2017-03-06T02:57:01.413Z,991.79
2017-03-06T02:58:01.389Z,991.82
2017-03-06T02:59:01.365Z,991.82
2017-03-06T03:00:01.349Z,991.84
2017-03-06T03:01:01.324Z,991.8
2017-03-06T03:02:01.296Z,991.78
2017-03-06T03:03:01.271Z,991.72
2017-03-06T03:04:01.252Z,991.79
2017-03-06T03:05:01.232Z,991.78
2017-03-06T03:06:01.205Z,991.79
2017-03-06T03:07:01.187Z,991.78
2017-03-06T03:08:01.160Z,991.78
2017-03-06T03:09:01.138Z,991.77
2017-03-06T03:10:01.114Z,991.75
2017-03-06T03:11:01.093Z,991.76
2017-03-06T03:12:01.069Z,991.73
2017-03-06T03:13:01.046Z,991.72
2017-03-06T03:14:01.029Z,991.71
2017-03-06T03:15:01.007Z,991.75
2017-03-06T03:16:00.979Z,991.73
2017-03-06T03:17:00.962Z,991.73
2017-03-06T03:18:00.939Z,991.78
2017-03-06T03:19:00.915Z,991.72
2017-03-06T03:20:00.898Z,991.74
2017-03-06T03:21:00.867Z,991.75
2017-03-06T03:22:00.845Z,991.75
2017-03-06T03:23:00.821Z,991.76
2017-03-06T03:24:00.800Z,991.75
2017-03-06T03:25:00.781Z,991.76
2017-03-06T03:26:00.766Z,991.71
2017-03-06T03:27:00.735Z,991.72
2017-03-06T03:28:00.719Z,991.71
2017-03-06T03:29:00.694Z,991.72
2017-03-06T03:30:00.674Z,991.72
2017-03-06T03:31:00.643Z,991.74
2017-03-06T03:32:00.621Z,991.75
2017-03-06T03:33:00.601Z,991.75
2017-03-06T03:34:00.576Z,991.75
2017-03-06T03:35:00.553Z,991.77
2017-03-06T03:36:00.530Z,991.76
2017-03-06T03:37:00.509Z,991.78
2017-03-06T03:38:00.489Z,991.8
2017-03-06T03:39:00.466Z,991.8
2017-03-06T03:40:00.442Z,991.77
2017-03-06T03:41:00.417Z,991.79
2017-03-06T03:42:00.398Z,991.79
2017-03-06T03:43:00.374Z,991.83
2017-03-06T03:44:00.354Z,991.81
2017-03-06T03:45:00.331Z,991.83
2017-03-06T03:46:00.305Z,991.81
2017-03-06T03:47:00.286Z,991.81
2017-03-06T03:48:00.260Z,991.84
2017-03-06T03:49:00.244Z,991.79
2017-03-06T03:50:00.214Z,991.85
2017-03-06T03:51:00.191Z,991.86
2017-03-06T03:52:00.172Z,991.88
2017-03-06T03:53:00.149Z,991.86
2017-03-06T03:54:00.126Z,991.83
2017-03-06T03:55:00.102Z,991.85
2017-03-06T03:56:00.078Z,991.8
2017-03-06T03:57:00.056Z,991.83
2017-03-06T03:58:00.042Z,991.88
2017-03-06T03:59:00.014Z,991.84
2017-03-06T03:59:59.992Z,991.8
2017-03-06T04:00:59.969Z,991.87
2017-03-06T04:01:59.947Z,991.86
2017-03-06T04:02:59.922Z,991.82
2017-03-06T04:03:59.906Z,991.87
2017-03-06T04:04:59.875Z,991.86
2017-03-06T04:05:59.853Z,991.83
2017-03-06T04:06:59.833Z,991.85
2017-03-06T04:07:59.810Z,991.81
2017-03-06T04:08:59.786Z,991.86
2017-03-06T04:09:59.766Z,991.85
2017-03-06T04:10:59.742Z,991.85
2017-03-06T04:11:59.721Z,991.84
2017-03-06T04:12:59.698Z,991.89
2017-03-06T04:13:59.673Z,991.88
2017-03-06T04:14:59.649Z,991.9
2017-03-06T04:15:59.628Z,991.9
2017-03-06T04:16:59.607Z,991.92
2017-03-06T04:17:59.586Z,991.9
2017-03-06T04:18:59.560Z,991.92
2017-03-06T04:19:59.539Z,991.92
2017-03-06T04:20:59.517Z,991.94
2017-03-06T04:21:59.496Z,991.93
2017-03-06T04:22:59.474Z,991.94
2017-03-06T04:23:59.456Z,991.97
2017-03-06T04:24:59.423Z,991.97
2017-03-06T04:25:59.404Z,991.99
2017-03-06T04:26:59.383Z,992
2017-03-06T04:27:59.361Z,992.01
2017-03-06T04:28:59.391Z,992.04
2017-03-06T04:29:59.308Z,992.06
2017-03-06T04:30:59.289Z,992.07
2017-03-06T04:31:59.264Z,992.06
2017-03-06T04:32:59.251Z,992.07
2017-03-06T04:33:59.219Z,992.06
2017-03-06T04:34:59.250Z,992.07
2017-03-06T04:35:59.174Z,992.09
2017-03-06T04:36:59.251Z,992.07
2017-03-06T04:37:59.128Z,992.08
2017-03-06T04:38:59.157Z,992.08
2017-03-06T04:39:59.086Z,992.05
2017-03-06T04:40:59.075Z,992.07
2017-03-06T04:41:59.038Z,992.06
2017-03-06T04:42:59.014Z,992.07
2017-03-06T04:43:58.995Z,992.06
2017-03-06T04:44:59.070Z,992.07
2017-03-06T04:45:58.944Z,992.06
2017-03-06T04:46:59.021Z,992.03
2017-03-06T04:47:58.897Z,992.03
2017-03-06T04:48:58.990Z,992.05
2017-03-06T04:49:58.852Z,992.04
2017-03-06T04:50:58.899Z,992.04
2017-03-06T04:51:58.806Z,992.04
2017-03-06T04:52:58.833Z,992.06
2017-03-06T04:53:58.757Z,992.04
2017-03-06T04:54:58.734Z,992.04
2017-03-06T04:55:58.718Z,992.02
2017-03-06T04:56:58.694Z,992.04
2017-03-06T04:57:58.667Z,992.07
2017-03-06T04:58:58.658Z,992.04
2017-03-06T04:59:58.625Z,992.09
2017-03-06T05:00:58.601Z,992.05
2017-03-06T05:01:58.584Z,992.09
2017-03-06T05:02:58.557Z,992.09
2017-03-06T05:03:58.534Z,992.13
2017-03-06T05:04:58.514Z,992.1
2017-03-06T05:05:58.483Z,992.08
2017-03-06T05:06:58.464Z,992.13
2017-03-06T05:07:58.441Z,992.11
2017-03-06T05:08:58.424Z,992.11
2017-03-06T05:09:58.402Z,992.15
2017-03-06T05:10:58.377Z,992.14
2017-03-06T05:11:58.350Z,992.1
2017-03-06T05:12:58.330Z,992.1
2017-03-06T05:13:58.300Z,992.1
2017-03-06T05:14:58.278Z,992.11
2017-03-06T05:15:58.258Z,992.11
2017-03-06T05:16:58.234Z,992.14
2017-03-06T05:17:58.217Z,992.1
2017-03-06T05:18:58.189Z,992.13
2017-03-06T05:19:58.167Z,992.12
2017-03-06T05:20:58.146Z,992.11
2017-03-06T05:21:58.124Z,992.13
2017-03-06T05:22:58.104Z,992.12
2017-03-06T05:23:58.076Z,992.11
2017-03-06T05:24:58.052Z,992.12
2017-03-06T05:25:58.029Z,992.12
2017-03-06T05:26:58.008Z,992.12
2017-03-06T05:27:57.993Z,992.08
2017-03-06T05:28:57.961Z,992.08
2017-03-06T05:29:57.936Z,992.05
2017-03-06T05:30:57.913Z,992.11
2017-03-06T05:31:57.890Z,992.06
2017-03-06T05:32:57.868Z,992.11
2017-03-06T05:33:57.848Z,992.09
2017-03-06T05:34:57.825Z,992.08
2017-03-06T05:35:57.798Z,992.07
2017-03-06T05:36:57.778Z,992.05
2017-03-06T05:37:57.756Z,992.08
2017-03-06T05:38:57.733Z,992.05
2017-03-06T05:39:57.706Z,992.07
2017-03-06T05:40:57.685Z,992.09
2017-03-06T05:41:57.662Z,992.06
2017-03-06T05:42:57.644Z,992.09
2017-03-06T05:43:57.614Z,992.11
2017-03-06T05:44:57.590Z,992.1
2017-03-06T05:45:57.573Z,992.06
2017-03-06T05:46:57.572Z,992.12
2017-03-06T05:47:57.524Z,992.14
2017-03-06T05:48:57.500Z,992.08
2017-03-06T05:49:57.481Z,992.09
2017-03-06T05:50:57.471Z,992.11
2017-03-06T05:51:57.430Z,992.12
2017-03-06T05:52:57.410Z,992.1
2017-03-06T05:53:57.382Z,992.14
2017-03-06T05:54:57.363Z,992.15
2017-03-06T05:55:57.347Z,992.14
2017-03-06T05:56:57.317Z,992.14
2017-03-06T05:57:57.289Z,992.13
2017-03-06T05:58:57.267Z,992.12
2017-03-06T05:59:57.244Z,992.15
2017-03-06T06:00:57.224Z,992.14
2017-03-06T06:01:57.205Z,992.11
2017-03-06T06:02:57.178Z,992.15
2017-03-06T06:03:57.150Z,992.11
2017-03-06T06:04:57.131Z,992.1
2017-03-06T06:05:57.115Z,992.15
2017-03-06T06:06:57.085Z,992.09
2017-03-06T06:07:57.062Z,992.08
2017-03-06T06:08:57.041Z,992.04
2017-03-06T06:09:57.017Z,992.07
2017-03-06T06:10:56.991Z,992.08
2017-03-06T06:11:56.976Z,992.06
2017-03-06T06:12:56.950Z,992.02
2017-03-06T06:13:56.918Z,992.03
2017-03-06T06:14:56.898Z,992.08
2017-03-06T06:15:56.879Z,992.06
2017-03-06T06:16:56.851Z,992.04
2017-03-06T06:17:56.826Z,992.04
2017-03-06T06:18:56.806Z,992.05
2017-03-06T06:19:56.784Z,992.03
2017-03-06T06:20:56.766Z,992.05
2017-03-06T06:21:56.733Z,992.04
2017-03-06T06:22:56.711Z,992.01
2017-03-06T06:23:56.687Z,992.01
2017-03-06T06:24:56.671Z,992.04
2017-03-06T06:25:56.640Z,992.08
2017-03-06T06:26:56.621Z,992.07
2017-03-06T06:27:56.600Z,992.03
2017-03-06T06:28:56.569Z,992.04
2017-03-06T06:29:56.549Z,992.01
2017-03-06T06:30:56.531Z,992.03
2017-03-06T06:31:56.504Z,992
2017-03-06T06:32:56.478Z,991.97
2017-03-06T06:33:56.457Z,991.95
2017-03-06T06:34:56.437Z,991.97
2017-03-06T06:35:56.408Z,992
2017-03-06T06:36:56.386Z,991.94
2017-03-06T06:37:56.365Z,991.94
2017-03-06T06:38:56.342Z,991.93
2017-03-06T06:39:56.315Z,991.97
2017-03-06T06:40:56.291Z,991.91
2017-03-06T06:41:56.268Z,991.94
2017-03-06T06:42:56.248Z,991.93
2017-03-06T06:43:56.223Z,991.93
2017-03-06T06:44:56.202Z,991.92
2017-03-06T06:45:56.173Z,991.93
2017-03-06T06:46:56.152Z,991.97
2017-03-06T06:47:56.130Z,991.92
2017-03-06T06:48:56.111Z,991.92
2017-03-06T06:49:56.089Z,991.97
2017-03-06T06:50:56.059Z,991.94
2017-03-06T06:51:56.038Z,991.99
2017-03-06T06:52:56.016Z,991.96
2017-03-06T06:53:55.994Z,992
2017-03-06T06:54:55.965Z,991.99
2017-03-06T06:55:55.944Z,992.02
2017-03-06T06:56:55.925Z,992.02
2017-03-06T06:57:55.900Z,992.03
2017-03-06T06:58:55.874Z,992.05
2017-03-06T06:59:55.849Z,992.03
2017-03-06T07:00:55.842Z,992.07
2017-03-06T07:01:55.810Z,992.04
2017-03-06T07:02:55.783Z,992.06
2017-03-06T07:03:55.761Z,992.1
2017-03-06T07:04:55.738Z,992.08
2017-03-06T07:05:55.714Z,992.11
2017-03-06T07:06:55.690Z,992.05
2017-03-06T07:07:55.668Z,992.08
2017-03-06T07:08:55.641Z,992.08
2017-03-06T07:09:55.627Z,992.04
2017-03-06T07:10:55.595Z,992.06
2017-03-06T07:11:55.585Z,992.06
2017-03-06T07:12:55.550Z,992.02
2017-03-06T07:13:55.525Z,992.05
2017-03-06T07:14:55.501Z,992.02
2017-03-06T07:15:55.485Z,992.02
2017-03-06T07:16:55.454Z,992.02
2017-03-06T07:17:55.435Z,992.03
2017-03-06T07:18:55.415Z,992.01
2017-03-06T07:19:55.394Z,992.01
2017-03-06T07:20:55.364Z,991.96
2017-03-06T07:21:55.345Z,992.01
2017-03-06T07:22:55.319Z,992.01
2017-03-06T07:23:55.302Z,991.98
2017-03-06T07:24:55.271Z,991.99
2017-03-06T07:25:55.249Z,991.94
2017-03-06T07:26:55.224Z,992.03
2017-03-06T07:27:55.200Z,991.99
2017-03-06T07:28:55.180Z,991.98
2017-03-06T07:29:55.164Z,991.97
2017-03-06T07:30:55.137Z,991.98
2017-03-06T07:31:55.106Z,991.95
2017-03-06T07:32:55.087Z,991.96
2017-03-06T07:33:55.066Z,991.94
2017-03-06T07:34:55.045Z,991.9
2017-03-06T07:35:55.015Z,991.93
2017-03-06T07:36:54.995Z,991.91
2017-03-06T07:37:54.970Z,991.9
2017-03-06T07:38:54.947Z,991.86
2017-03-06T07:39:54.921Z,991.92
2017-03-06T07:40:54.903Z,991.93
2017-03-06T07:41:54.880Z,991.93
2017-03-06T07:42:54.860Z,991.9
2017-03-06T07:43:54.829Z,991.88
2017-03-06T07:44:54.810Z,991.91
2017-03-06T07:45:54.790Z,991.91
2017-03-06T07:46:54.759Z,991.89
2017-03-06T07:47:54.738Z,991.93
2017-03-06T07:48:54.719Z,991.87
2017-03-06T07:49:54.691Z,991.86
2017-03-06T07:50:54.670Z,991.89
2017-03-06T07:51:54.644Z,991.85
2017-03-06T07:52:54.620Z,991.85
2017-03-06T07:53:54.596Z,991.84
2017-03-06T07:54:54.578Z,991.87
2017-03-06T07:55:54.554Z,991.84
2017-03-06T07:56:54.528Z,991.8
2017-03-06T07:57:54.505Z,991.84
2017-03-06T07:58:54.482Z,991.84
2017-03-06T07:59:54.463Z,991.85
2017-03-06T08:00:54.446Z,991.85
2017-03-06T08:01:54.411Z,991.86
2017-03-06T08:02:54.393Z,991.86
2017-03-06T08:03:54.366Z,991.89
2017-03-06T08:04:54.352Z,991.87
2017-03-06T08:05:54.321Z,991.81
2017-03-06T08:06:54.309Z,991.81
2017-03-06T08:07:54.280Z,991.79
2017-03-06T08:08:54.252Z,991.77
2017-03-06T08:09:54.227Z,991.8
2017-03-06T08:10:54.213Z,991.8
2017-03-06T08:11:54.191Z,991.77
2017-03-06T08:12:54.162Z,991.77
2017-03-06T08:13:54.145Z,991.77
2017-03-06T08:14:54.114Z,991.78
2017-03-06T08:15:54.096Z,991.76
2017-03-06T08:16:54.079Z,991.75
2017-03-06T08:17:54.056Z,991.8
2017-03-06T08:18:54.032Z,991.72
2017-03-06T08:19:54.002Z,991.74
2017-03-06T08:20:53.983Z,991.74
2017-03-06T08:21:53.955Z,991.75
2017-03-06T08:22:53.935Z,991.78
2017-03-06T08:23:53.909Z,991.81
2017-03-06T08:24:53.948Z,991.78
2017-03-06T08:25:53.865Z,991.83
2017-03-06T08:26:53.848Z,991.89
2017-03-06T08:27:53.818Z,991.86
2017-03-06T08:28:53.797Z,991.9
2017-03-06T08:29:53.778Z,991.9
2017-03-06T08:30:53.753Z,991.85
2017-03-06T08:31:53.737Z,991.86
2017-03-06T08:32:53.710Z,991.85
2017-03-06T08:33:53.692Z,991.87
2017-03-06T08:34:53.664Z,991.81
2017-03-06T08:35:53.644Z,991.82
2017-03-06T08:36:53.624Z,991.76
2017-03-06T08:37:53.603Z,991.82
2017-03-06T08:38:53.580Z,991.8
2017-03-06T08:39:53.565Z,991.77
2017-03-06T08:40:53.542Z,991.74
2017-03-06T08:41:53.518Z,991.76
2017-03-06T08:42:53.488Z,991.74
2017-03-06T08:43:53.472Z,991.76
2017-03-06T08:44:53.452Z,991.7
2017-03-06T08:45:53.429Z,991.71
2017-03-06T08:46:53.408Z,991.66
2017-03-06T08:47:53.388Z,991.68
2017-03-06T08:48:53.417Z,991.68
2017-03-06T08:49:53.335Z,991.7
2017-03-06T08:50:53.316Z,991.68
2017-03-06T08:51:53.295Z,991.69
2017-03-06T08:52:53.371Z,991.72
2017-03-06T08:53:53.247Z,991.66
2017-03-06T08:54:53.227Z,991.68
2017-03-06T08:55:53.214Z,991.66
2017-03-06T08:56:53.233Z,991.66
2017-03-06T08:57:53.159Z,991.66
2017-03-06T08:58:53.168Z,991.67
2017-03-06T08:59:53.118Z,991.65
2017-03-06T09:00:53.144Z,991.63
2017-03-06T09:01:53.070Z,991.63
2017-03-06T09:02:53.049Z,991.64
2017-03-06T09:03:53.027Z,991.64
2017-03-06T09:04:53.060Z,991.66
2017-03-06T09:05:52.988Z,991.67
2017-03-06T09:06:52.957Z,991.67
2017-03-06T09:07:52.937Z,991.67
2017-03-06T09:08:52.916Z,991.62
2017-03-06T09:09:52.891Z,991.65
2017-03-06T09:10:52.870Z,991.65
2017-03-06T09:11:52.857Z,991.64
2017-03-06T09:12:52.824Z,991.69
2017-03-06T09:13:52.804Z,991.66
2017-03-06T09:14:52.781Z,991.65
2017-03-06T09:15:52.762Z,991.67
2017-03-06T09:16:52.742Z,991.69
2017-03-06T09:17:52.715Z,991.68
2017-03-06T09:18:52.703Z,991.69
2017-03-06T09:19:52.678Z,991.71
2017-03-06T09:20:52.663Z,991.74
2017-03-06T09:21:52.641Z,991.75
2017-03-06T09:22:52.615Z,991.7
2017-03-06T09:23:52.593Z,991.72
2017-03-06T09:24:52.576Z,991.78
2017-03-06T09:25:52.545Z,991.75
2017-03-06T09:26:52.527Z,991.78
2017-03-06T09:27:52.512Z,991.8
2017-03-06T09:28:52.490Z,991.75
2017-03-06T09:29:52.466Z,991.77
2017-03-06T09:30:52.444Z,991.83
2017-03-06T09:31:52.424Z,991.76
2017-03-06T09:32:52.405Z,991.77
2017-03-06T09:33:52.380Z,991.79
2017-03-06T09:34:52.362Z,991.73
2017-03-06T09:35:52.342Z,991.71
2017-03-06T09:36:52.318Z,991.75
2017-03-06T09:37:52.301Z,991.73
2017-03-06T09:38:52.280Z,991.72
2017-03-06T09:39:52.273Z,991.7
2017-03-06T09:40:52.236Z,991.73
2017-03-06T09:41:52.219Z,991.72
2017-03-06T09:42:52.201Z,991.71
2017-03-06T09:43:52.177Z,991.7
2017-03-06T09:44:52.155Z,991.64
2017-03-06T09:45:52.134Z,991.66
2017-03-06T09:46:52.116Z,991.68
2017-03-06T09:47:52.095Z,991.66
2017-03-06T09:48:52.075Z,991.67
2017-03-06T09:49:52.054Z,991.65
2017-03-06T09:50:52.034Z,991.68
2017-03-06T09:51:52.014Z,991.69
2017-03-06T09:52:51.990Z,991.67
2017-03-06T09:53:51.973Z,991.68
2017-03-06T09:54:51.951Z,991.69
2017-03-06T09:55:51.927Z,991.68
2017-03-06T09:56:51.914Z,991.65
2017-03-06T09:57:51.889Z,991.74
2017-03-06T09:58:51.871Z,991.72
2017-03-06T09:59:51.844Z,991.74
2017-03-06T10:00:51.825Z,991.69
2017-03-06T10:01:51.801Z,991.75
2017-03-06T10:02:51.787Z,991.76
2017-03-06T10:03:51.768Z,991.76
2017-03-06T10:04:51.746Z,991.77
2017-03-06T10:05:51.718Z,991.83
2017-03-06T10:06:51.695Z,991.86
2017-03-06T10:07:51.672Z,991.82
2017-03-06T10:08:51.655Z,991.82
2017-03-06T10:09:51.635Z,991.78
2017-03-06T10:10:51.613Z,991.8
2017-03-06T10:11:51.597Z,991.78
2017-03-06T10:12:51.567Z,991.75
2017-03-06T10:13:51.564Z,991.75
2017-03-06T10:14:51.539Z,991.75
2017-03-06T10:15:51.511Z,991.77
2017-03-06T10:16:51.491Z,991.78
2017-03-06T10:17:51.462Z,991.73
2017-03-06T10:18:51.444Z,991.76
2017-03-06T10:19:51.419Z,991.77
2017-03-06T10:20:51.397Z,991.76
2017-03-06T10:21:51.378Z,991.76
2017-03-06T10:22:51.357Z,991.76
2017-03-06T10:23:51.334Z,991.75
2017-03-06T10:24:51.310Z,991.74
2017-03-06T10:25:51.297Z,991.73
2017-03-06T10:26:51.275Z,991.74
2017-03-06T10:27:51.244Z,991.73
2017-03-06T10:28:51.222Z,991.74
2017-03-06T10:29:51.204Z,991.74
2017-03-06T10:30:51.193Z,991.77
2017-03-06T10:31:51.162Z,991.77
2017-03-06T10:32:51.135Z,991.75
2017-03-06T10:33:51.121Z,991.77
2017-03-06T10:34:51.099Z,991.75
2017-03-06T10:35:51.070Z,991.75
2017-03-06T10:36:51.051Z,991.75
2017-03-06T10:37:51.030Z,991.77
2017-03-06T10:38:51.012Z,991.79
2017-03-06T10:39:50.983Z,991.79
2017-03-06T10:40:50.964Z,991.76
2017-03-06T10:41:50.940Z,991.83
2017-03-06T10:42:50.924Z,991.85
2017-03-06T10:43:50.907Z,991.81
2017-03-06T10:44:50.878Z,991.81
2017-03-06T10:45:50.855Z,991.84
2017-03-06T10:46:50.834Z,991.85
2017-03-06T10:47:50.814Z,991.91
2017-03-06T10:48:50.814Z,991.9
2017-03-06T10:49:50.774Z,991.95
2017-03-06T10:50:50.749Z,991.92
2017-03-06T10:51:50.734Z,991.95
2017-03-06T10:52:50.719Z,991.96
2017-03-06T10:53:50.689Z,991.96
2017-03-06T10:54:50.666Z,991.95
2017-03-06T10:55:50.638Z,991.94
2017-03-06T10:56:50.625Z,991.93
2017-03-06T10:57:50.602Z,991.97
2017-03-06T10:58:50.580Z,992.01
2017-03-06T10:59:50.559Z,991.98
2017-03-06T11:00:50.528Z,991.99
2017-03-06T11:01:50.512Z,992.04
2017-03-06T11:02:50.485Z,992.03
2017-03-06T11:03:50.465Z,991.98
2017-03-06T11:04:50.449Z,992.02
2017-03-06T11:05:50.418Z,991.94
2017-03-06T11:06:50.405Z,991.97
2017-03-06T11:07:50.381Z,991.93
2017-03-06T11:08:50.352Z,991.93
2017-03-06T11:09:50.332Z,991.93
2017-03-06T11:10:50.311Z,991.93
2017-03-06T11:11:50.300Z,991.94
2017-03-06T11:12:50.271Z,991.95
2017-03-06T11:13:50.247Z,991.92
2017-03-06T11:14:50.222Z,991.93
2017-03-06T11:15:50.208Z,991.92
2017-03-06T11:16:50.182Z,991.91
2017-03-06T11:17:50.158Z,991.92
2017-03-06T11:18:50.135Z,991.92
2017-03-06T11:19:50.117Z,991.9
2017-03-06T11:20:50.096Z,991.91
2017-03-06T11:21:50.080Z,991.95
2017-03-06T11:22:50.050Z,991.96
2017-03-06T11:23:50.026Z,992
2017-03-06T11:24:50.010Z,991.95
2017-03-06T11:25:49.987Z,991.98
2017-03-06T11:26:49.965Z,991.97
2017-03-06T11:27:49.943Z,992.03
2017-03-06T11:28:49.921Z,992.01
2017-03-06T11:29:49.897Z,992
2017-03-06T11:30:49.881Z,992.01
2017-03-06T11:31:49.858Z,992.01
2017-03-06T11:32:49.834Z,992
2017-03-06T11:33:49.810Z,991.98
2017-03-06T11:34:49.794Z,991.98
2017-03-06T11:35:49.778Z,992
2017-03-06T11:36:49.747Z,991.99
2017-03-06T11:37:49.727Z,991.97
2017-03-06T11:38:49.707Z,991.99
2017-03-06T11:39:49.687Z,991.98
2017-03-06T11:40:49.666Z,992.03
2017-03-06T11:41:49.647Z,992.03
2017-03-06T11:42:49.625Z,992
2017-03-06T11:43:49.604Z,991.95
2017-03-06T11:44:49.583Z,991.95
2017-03-06T11:45:49.565Z,991.95
2017-03-06T11:46:49.541Z,991.94
2017-03-06T11:47:49.518Z,992
2017-03-06T11:48:49.501Z,991.93
2017-03-06T11:49:49.476Z,991.95
2017-03-06T11:50:49.460Z,992
2017-03-06T11:51:49.440Z,991.95
2017-03-06T11:52:49.415Z,991.99
2017-03-06T11:53:49.400Z,991.97
2017-03-06T11:54:49.381Z,991.97
2017-03-06T11:55:49.353Z,992
2017-03-06T11:56:49.335Z,991.99
2017-03-06T11:57:49.317Z,991.99
2017-03-06T11:58:49.290Z,991.99
2017-03-06T11:59:49.276Z,991.99
2017-03-06T12:00:49.247Z,991.99
2017-03-06T12:01:49.233Z,992.03
2017-03-06T12:02:49.204Z,992.03
2017-03-06T12:03:49.185Z,992.01
2017-03-06T12:04:49.162Z,992.03
2017-03-06T12:05:49.142Z,992.05
2017-03-06T12:06:49.119Z,992.06
2017-03-06T12:07:49.101Z,992.03
2017-03-06T12:08:49.081Z,992.01
2017-03-06T12:09:49.059Z,992.02
2017-03-06T12:10:49.039Z,992.04
2017-03-06T12:11:49.018Z,992.05
2017-03-06T12:12:48.997Z,992.07
2017-03-06T12:13:48.978Z,992.09
2017-03-06T12:14:48.963Z,992.07
2017-03-06T12:15:48.939Z,992.07
2017-03-06T12:16:48.917Z,992.06
2017-03-06T12:17:48.899Z,992.1
2017-03-06T12:18:48.876Z,992.1
2017-03-06T12:19:48.853Z,992.1
2017-03-06T12:20:48.827Z,992.13
2017-03-06T12:21:48.815Z,992.12
2017-03-06T12:22:48.794Z,992.16
2017-03-06T12:23:48.769Z,992.11
2017-03-06T12:24:48.750Z,992.14
2017-03-06T12:25:48.731Z,992.14
2017-03-06T12:26:48.710Z,992.18
2017-03-06T12:27:48.682Z,992.19
2017-03-06T12:28:48.674Z,992.19
2017-03-06T12:29:48.642Z,992.15
2017-03-06T12:30:48.624Z,992.2